Time;durP1;ratioP1;P1;durP2;ratioP2;P2;SDS_P1;SDS_P2;PMS_P1;PMS_P2;Temp;Humidity;BMP_temperature;BMP_pressure;BME280_temperature;BME280_humidity;BME280_pressure;Samples;Min_cycle;Max_cycle;Signal;HPM_P1;HPM_P2
2021/03/06 00:00:10;;;;;;;0.40;0.00;;;;;;;21.79;44.45;102181.19;5072111;28;20048;-64
2021/03/06 00:02:36;;;;;;;0.00;0.00;;;;;;;21.80;44.33;102175.53;5073664;28;20460;-64
2021/03/06 00:05:03;;;;;;;0.00;0.00;;;;;;;21.77;44.83;102178.59;5076081;28;20052;-64
2021/03/06 00:07:28;;;;;;;0.10;0.10;;;;;;;21.76;44.63;102165.94;5076322;28;20025;-64
2021/03/06 00:09:54;;;;;;;0.30;0.08;;;;;;;21.75;44.71;102164.22;5076046;28;20020;-64
2021/03/06 00:12:19;;;;;;;0.10;0.10;;;;;;;21.71;44.68;102160.09;5076060;28;20368;-64
2021/03/06 00:14:44;;;;;;;0.20;0.10;;;;;;;21.75;44.59;102158.75;5076105;28;20020;-63
2021/03/06 00:17:10;;;;;;;0.00;0.00;;;;;;;21.74;44.66;102161.66;5075918;28;20088;-64
2021/03/06 00:19:35;;;;;;;0.03;0.03;;;;;;;21.72;44.85;102153.59;5065783;28;20028;-64
2021/03/06 00:22:00;;;;;;;0.20;0.10;;;;;;;21.71;44.71;102157.38;5065786;28;20112;-64
2021/03/06 00:24:25;;;;;;;0.10;0.10;;;;;;;21.70;44.71;102155.66;5074132;28;20036;-64
2021/03/06 00:26:51;;;;;;;0.10;0.10;;;;;;;21.73;44.74;102157.22;5075700;28;20463;-63
2021/03/06 00:29:16;;;;;;;0.20;0.10;;;;;;;21.70;44.41;102155.66;5076090;28;20406;-63
2021/03/06 00:31:42;;;;;;;0.10;0.10;;;;;;;21.67;44.84;102155.97;5075816;28;20035;-63
2021/03/06 00:34:07;;;;;;;0.52;0.20;;;;;;;21.70;44.87;102149.31;5075813;28;20024;-64
2021/03/06 00:36:33;;;;;;;0.20;0.10;;;;;;;21.69;44.62;102144.88;5075723;28;20581;-64
2021/03/06 00:38:59;;;;;;;0.00;0.00;;;;;;;21.68;44.41;102145.91;5075381;28;20063;-64
2021/03/06 00:41:24;;;;;;;0.00;0.00;;;;;;;21.64;44.97;102139.84;5075481;28;20032;-63
2021/03/06 00:43:49;;;;;;;0.25;0.10;;;;;;;21.63;45.31;102136.25;5075444;28;20433;-64
2021/03/06 00:46:15;;;;;;;0.32;0.25;;;;;;;21.64;44.89;102128.91;5075411;28;20070;-64
2021/03/06 00:48:40;;;;;;;0.05;0.00;;;;;;;21.63;44.84;102128.06;5075072;28;20028;-64
2021/03/06 00:51:07;;;;;;;0.00;0.00;;;;;;;21.64;44.91;102126.19;5075199;28;20086;-64
2021/03/06 00:53:36;;;;;;;0.10;0.00;;;;;;;21.64;44.52;102112.50;5075393;28;20056;-64
2021/03/06 00:56:02;;;;;;;0.10;0.10;;;;;;;21.62;44.69;102109.91;5075115;28;20051;-63
2021/03/06 00:58:27;;;;;;;0.22;0.10;;;;;;;21.60;44.61;102105.63;5075244;28;20064;-64
2021/03/06 01:00:53;;;;;;;0.10;0.10;;;;;;;21.62;44.41;102103.59;5074889;28;20032;-63
2021/03/06 01:03:18;;;;;;;0.00;0.00;;;;;;;21.62;44.49;102093.50;5075119;28;20028;-64
2021/03/06 01:05:43;;;;;;;0.10;0.10;;;;;;;21.62;44.63;102088.03;5075164;28;20590;-64
2021/03/06 01:08:09;;;;;;;0.10;0.00;;;;;;;21.63;45.44;102088.88;5075330;28;20398;-63
2021/03/06 01:10:37;;;;;;;0.15;0.00;;;;;;;21.60;45.31;102081.88;5075067;28;20078;-64
2021/03/06 01:13:04;;;;;;;0.05;0.00;;;;;;;21.61;45.78;102075.38;5074269;28;20025;-64
2021/03/06 01:15:29;;;;;;;0.00;0.00;;;;;;;21.57;46.35;102070.38;5057140;28;20458;-64
2021/03/06 01:17:54;;;;;;;0.55;0.30;;;;;;;21.58;46.56;102061.16;5074351;28;20036;-63
2021/03/06 01:20:20;;;;;;;0.00;0.00;;;;;;;21.60;47.13;102072.78;5074910;28;20028;-64
2021/03/06 01:22:45;;;;;;;0.22;0.10;;;;;;;21.58;47.15;102063.91;5074433;28;20024;-63
2021/03/06 01:25:11;;;;;;;0.38;0.10;;;;;;;21.59;47.13;102060.13;5056748;28;20186;-64
2021/03/06 01:27:36;;;;;;;0.00;0.00;;;;;;;21.54;47.55;102055.16;5074861;28;20032;-64
2021/03/06 01:30:04;;;;;;;0.00;0.00;;;;;;;21.57;47.24;102051.25;5074570;28;20052;-63
2021/03/06 01:32:29;;;;;;;0.10;0.10;;;;;;;21.53;47.29;102049.84;5056648;28;20021;-64
2021/03/06 01:34:54;;;;;;;0.00;0.00;;;;;;;21.57;47.06;102053.97;5074466;28;20075;-64
2021/03/06 01:37:19;;;;;;;0.28;0.00;;;;;;;21.58;47.00;102048.34;5074632;28;20063;-64
2021/03/06 01:39:45;;;;;;;0.20;0.00;;;;;;;21.55;47.67;102042.34;5074493;28;20021;-64
2021/03/06 01:42:10;;;;;;;0.00;0.00;;;;;;;21.57;47.49;102030.19;5074444;28;20080;-64
2021/03/06 01:44:36;;;;;;;0.10;0.00;;;;;;;21.53;47.44;102022.50;5074472;28;20056;-64
2021/03/06 01:47:02;;;;;;;0.10;0.10;;;;;;;21.53;47.42;102011.53;5074077;28;20464;-64
2021/03/06 01:49:27;;;;;;;0.10;0.10;;;;;;;21.53;46.89;102017.03;5059062;28;20027;-64
2021/03/06 01:51:53;;;;;;;0.00;0.00;;;;;;;21.53;47.10;102017.03;5073225;28;20031;-64
2021/03/06 01:54:22;;;;;;;0.00;0.00;;;;;;;21.52;46.73;102013.44;5074270;28;20033;-63
2021/03/06 01:56:48;;;;;;;0.35;0.00;;;;;;;21.49;46.46;102005.53;5074124;28;20044;-64
2021/03/06 01:59:14;;;;;;;0.03;0.00;;;;;;;21.48;46.87;102002.94;5074111;28;20028;-64
2021/03/06 02:01:39;;;;;;;0.10;0.00;;;;;;;21.50;46.23;101995.44;5074140;28;20035;-64
2021/03/06 02:04:05;;;;;;;0.38;0.00;;;;;;;21.50;46.04;101998.16;5073899;28;20059;-64
2021/03/06 02:06:30;;;;;;;0.20;0.10;;;;;;;21.50;45.88;101988.13;5074022;28;20032;-64
2021/03/06 02:08:55;;;;;;;0.10;0.10;;;;;;;21.48;46.16;101970.13;5073796;28;20044;-64
2021/03/06 02:11:35;;;;;;;0.00;0.00;;;;;;;21.52;45.71;101968.78;5073816;28;20392;-65
2021/03/06 02:14:07;;;;;;;0.08;0.00;;;;;;;21.49;46.52;101966.34;5073647;28;20020;-64
2021/03/06 02:16:40;;;;;;;0.00;0.00;;;;;;;21.48;45.75;101959.19;5073826;28;20390;-64
2021/03/06 02:19:33;;;;;;;0.00;0.00;;;;;;;21.50;45.82;101963.50;5073172;28;20032;-64
2021/03/06 02:22:36;;;;;;;0.00;0.00;;;;;;;21.47;46.74;101950.13;5073539;28;20033;-64
2021/03/06 02:25:11;;;;;;;0.10;0.03;;;;;;;21.49;45.27;101942.59;5072643;28;20028;-64
2021/03/06 02:27:55;;;;;;;0.10;0.10;;;;;;;21.45;45.55;101938.47;5073661;28;20364;-64
2021/03/06 02:30:22;;;;;;;0.10;0.05;;;;;;;21.47;45.49;101936.44;5073579;28;20066;-64
2021/03/06 02:32:49;;;;;;;0.00;0.00;;;;;;;21.46;45.68;101933.88;5055407;28;20459;-64
2021/03/06 02:35:18;;;;;;;0.63;0.10;;;;;;;21.46;45.55;101929.25;5073412;28;20048;-64
2021/03/06 02:37:55;;;;;;;0.10;0.03;;;;;;;21.47;45.38;101925.50;5073372;28;20068;-63
2021/03/06 02:40:22;;;;;;;0.00;0.00;;;;;;;21.45;45.28;101927.53;5073386;28;20027;-64
2021/03/06 02:42:50;;;;;;;0.25;0.10;;;;;;;21.48;45.40;101920.88;5073415;28;20033;-63
2021/03/06 02:45:17;;;;;;;0.08;0.00;;;;;;;21.44;45.58;101914.03;5073289;28;20020;-64
2021/03/06 02:47:43;;;;;;;0.20;0.10;;;;;;;21.43;45.28;101906.84;5052298;28;20035;-64
2021/03/06 02:50:10;;;;;;;0.22;0.00;;;;;;;21.43;45.21;101884.97;5053151;28;20029;-64
2021/03/06 02:52:36;;;;;;;0.00;0.00;;;;;;;21.44;45.27;101887.53;5053040;28;20036;-64
2021/03/06 02:55:04;;;;;;;0.00;0.00;;;;;;;21.45;45.10;101899.31;5052828;28;20035;-63
2021/03/06 02:57:32;;;;;;;0.00;0.00;;;;;;;21.45;45.04;101888.38;5053178;28;20028;-64
2021/03/06 03:00:09;;;;;;;0.00;0.00;;;;;;;21.41;45.93;101878.81;5053071;28;20020;-64
2021/03/06 03:03:04;;;;;;;0.10;0.10;;;;;;;21.42;45.20;101880.50;5052995;28;20029;-64
2021/03/06 03:05:36;;;;;;;0.00;0.00;;;;;;;21.45;44.95;101877.44;5054112;28;20055;-64
2021/03/06 03:08:07;;;;;;;0.20;0.00;;;;;;;21.42;45.49;101866.84;5061189;28;20024;-64
2021/03/06 03:10:36;;;;;;;0.00;0.00;;;;;;;21.46;45.13;101868.19;5072858;28;20025;-64
2021/03/06 03:13:19;;;;;;;0.08;0.00;;;;;;;21.46;44.86;101865.47;5054531;28;20021;-64
2021/03/06 03:15:48;;;;;;;0.00;0.00;;;;;;;21.41;45.01;101859.66;5072741;28;20032;-64
2021/03/06 03:18:18;;;;;;;0.10;0.10;;;;;;;21.44;44.69;101851.97;5073002;28;20032;-64
2021/03/06 03:20:49;;;;;;;0.00;0.00;;;;;;;21.42;44.79;101864.97;5072709;28;20038;-64
2021/03/06 03:23:37;;;;;;;0.15;0.00;;;;;;;21.42;44.83;101866.84;5072583;28;20472;-64
2021/03/06 03:26:06;;;;;;;0.20;0.00;;;;;;;21.41;45.42;101865.97;5052383;28;20033;-63
2021/03/06 03:28:33;;;;;;;0.00;0.00;;;;;;;21.40;45.44;101852.47;5052664;28;20033;-64
2021/03/06 03:31:00;;;;;;;0.00;0.00;;;;;;;21.39;45.72;101854.34;5052343;28;20028;-63
2021/03/06 03:33:27;;;;;;;0.00;0.00;;;;;;;21.43;46.30;101860.34;5034765;28;20025;-64
2021/03/06 03:35:53;;;;;;;0.38;0.05;;;;;;;21.41;46.44;101851.44;5061984;28;20052;-64
2021/03/06 03:38:20;;;;;;;0.10;0.10;;;;;;;21.40;46.74;101853.31;5072091;28;20059;-63
2021/03/06 03:40:46;;;;;;;0.03;0.03;;;;;;;21.43;46.96;101849.41;5072421;28;20029;-63
2021/03/06 03:43:12;;;;;;;0.03;0.03;;;;;;;21.43;46.97;101849.41;5072260;28;20067;-63
2021/03/06 03:45:38;;;;;;;0.00;0.00;;;;;;;21.42;47.35;101844.94;5072835;28;20028;-63
2021/03/06 03:48:04;;;;;;;0.15;0.10;;;;;;;21.41;47.68;101832.28;5072251;28;20493;-63
2021/03/06 03:50:30;;;;;;;0.10;0.00;;;;;;;21.41;47.76;101835.88;5072449;28;20108;-63
2021/03/06 03:52:56;;;;;;;0.10;0.05;;;;;;;21.38;48.11;101828.03;5072131;28;20031;-63
2021/03/06 03:55:22;;;;;;;0.00;0.00;;;;;;;21.38;47.72;101813.50;5054432;28;20062;-63
2021/03/06 03:57:48;;;;;;;0.20;0.10;;;;;;;21.42;47.77;101809.38;5072257;28;20025;-63
2021/03/06 04:00:16;;;;;;;0.00;0.00;;;;;;;21.41;47.40;101794.00;5072256;28;20035;-63
2021/03/06 04:02:41;;;;;;;0.10;0.00;;;;;;;21.40;47.72;101793.16;5072287;28;20012;-63
2021/03/06 04:05:09;;;;;;;0.00;0.00;;;;;;;21.40;47.16;101786.81;5069419;28;20035;-63
2021/03/06 04:07:45;;;;;;;0.00;0.00;;;;;;;21.40;47.40;101792.28;5038370;28;20119;-64
2021/03/06 04:10:13;;;;;;;0.05;0.03;;;;;;;21.40;47.51;101781.34;5072217;28;20024;-64
2021/03/06 04:12:40;;;;;;;0.00;0.00;;;;;;;21.40;47.06;101786.81;5054261;28;20047;-63
2021/03/06 04:15:06;;;;;;;0.05;0.00;;;;;;;21.39;47.18;101785.97;5072268;28;20337;-63
2021/03/06 04:17:32;;;;;;;0.13;0.13;;;;;;;21.38;46.74;101772.47;5072190;28;20028;-63
2021/03/06 04:19:57;;;;;;;0.10;0.00;;;;;;;21.39;46.56;101768.69;5071758;28;20024;-63
2021/03/06 04:22:23;;;;;;;0.00;0.00;;;;;;;21.39;46.51;101760.50;5071919;28;20012;-63
2021/03/06 04:24:48;;;;;;;0.00;0.00;;;;;;;21.39;46.33;101760.50;5072037;28;20367;-63
2021/03/06 04:27:13;;;;;;;0.00;0.00;;;;;;;21.37;46.25;101760.66;5071966;28;20028;-63
2021/03/06 04:29:39;;;;;;;0.05;0.00;;;;;;;21.38;46.51;101750.56;5072100;28;20375;-63
2021/03/06 04:32:04;;;;;;;0.00;0.00;;;;;;;21.36;46.03;101753.47;5071754;28;20042;-63
2021/03/06 04:34:29;;;;;;;0.20;0.20;;;;;;;21.37;45.78;101736.03;5053992;28;20062;-63
2021/03/06 04:36:55;;;;;;;0.10;0.00;;;;;;;21.39;46.17;101730.41;5071040;28;20032;-64
2021/03/06 04:39:20;;;;;;;0.00;0.00;;;;;;;21.37;46.11;101721.50;5071573;28;20344;-63
2021/03/06 04:41:45;;;;;;;0.10;0.05;;;;;;;21.37;45.89;101716.03;5050418;28;20049;-63
2021/03/06 04:44:13;;;;;;;0.00;0.00;;;;;;;21.37;46.10;101710.56;5051846;28;20027;-63
2021/03/06 04:46:38;;;;;;;0.10;0.00;;;;;;;21.36;45.84;101697.91;5050908;28;20512;-63
2021/03/06 04:49:04;;;;;;;0.32;0.03;;;;;;;21.38;45.55;101706.81;5053620;28;20184;-63
2021/03/06 04:51:29;;;;;;;0.10;0.05;;;;;;;21.37;45.88;101707.84;5055636;28;20123;-63
2021/03/06 04:53:56;;;;;;;0.30;0.15;;;;;;;21.37;45.73;101699.63;5055147;28;20464;-63
2021/03/06 04:56:21;;;;;;;0.60;0.08;;;;;;;21.35;45.88;101685.28;5055430;28;20191;-63
2021/03/06 04:58:46;;;;;;;0.35;0.00;;;;;;;21.35;45.51;101686.13;5055661;28;20033;-63
2021/03/06 05:01:11;;;;;;;0.00;0.00;;;;;;;21.35;45.60;101685.28;5054992;28;20361;-63
2021/03/06 05:03:37;;;;;;;0.00;0.00;;;;;;;21.38;45.97;101690.41;5055371;28;20025;-63
2021/03/06 05:06:02;;;;;;;0.20;0.00;;;;;;;21.40;45.71;101688.34;5054333;28;20021;-63
2021/03/06 05:08:27;;;;;;;0.00;0.00;;;;;;;21.44;45.66;101684.22;5038824;28;20036;-63
2021/03/06 05:10:53;;;;;;;0.17;0.00;;;;;;;21.54;45.45;101680.31;5034972;28;20369;-63
2021/03/06 05:13:18;;;;;;;0.20;0.10;;;;;;;21.60;45.19;101686.94;5035055;28;20040;-63
2021/03/06 05:15:43;;;;;;;0.00;0.00;;;;;;;21.67;45.26;101679.78;5035063;28;20067;-63
2021/03/06 05:18:09;;;;;;;0.10;0.00;;;;;;;21.70;44.96;101679.44;5035010;28;20076;-63
2021/03/06 05:20:34;;;;;;;0.00;0.00;;;;;;;21.73;44.72;101679.06;5035055;28;20416;-63
2021/03/06 05:22:59;;;;;;;0.00;0.00;;;;;;;21.77;44.48;101663.16;5034681;28;20026;-63
2021/03/06 05:25:24;;;;;;;0.10;0.00;;;;;;;21.72;44.72;101647.25;5035000;28;20064;-63
2021/03/06 05:27:53;;;;;;;0.00;0.00;;;;;;;21.76;44.43;101651.34;5034711;28;20456;-63
2021/03/06 05:30:20;;;;;;;0.05;0.00;;;;;;;21.75;45.02;101641.44;5034894;28;20063;-63
2021/03/06 05:32:46;;;;;;;0.30;0.25;;;;;;;21.81;44.38;101648.94;5043820;28;20111;-63
2021/03/06 05:35:11;;;;;;;0.03;0.00;;;;;;;21.80;44.40;101636.28;5054545;28;20075;-63
2021/03/06 05:37:37;;;;;;;0.08;0.08;;;;;;;21.79;44.23;101640.03;5054684;28;20206;-63
2021/03/06 05:40:03;;;;;;;0.00;0.00;;;;;;;21.80;44.30;101641.75;5054655;28;20052;-63
2021/03/06 05:42:29;;;;;;;0.00;0.00;;;;;;;21.80;43.86;101636.28;5065443;28;20045;-63
2021/03/06 05:44:56;;;;;;;0.45;0.15;;;;;;;21.81;43.89;101631.66;5074264;28;20052;-63
2021/03/06 05:47:22;;;;;;;0.00;0.00;;;;;;;21.81;43.87;101624.31;5074342;28;20041;-63
2021/03/06 05:49:47;;;;;;;0.00;0.00;;;;;;;21.82;44.31;101628.75;5074295;28;20025;-63
2021/03/06 05:52:17;;;;;;;0.00;0.00;;;;;;;21.87;44.35;101623.63;5074266;28;20067;-63
2021/03/06 05:54:47;;;;;;;0.00;0.00;;;;;;;21.87;44.79;101618.16;5074333;28;20372;-63
2021/03/06 05:57:12;;;;;;;0.00;0.00;;;;;;;21.89;45.31;101635.25;5074401;28;20103;-63
2021/03/06 05:59:39;;;;;;;0.05;0.00;;;;;;;21.90;45.49;101620.53;5073237;28;20060;-63
2021/03/06 06:02:04;;;;;;;0.30;0.10;;;;;;;21.91;45.72;101610.44;5069904;28;20029;-63
2021/03/06 06:04:31;;;;;;;0.10;0.10;;;;;;;21.92;46.10;101617.59;5058783;28;20027;-64
2021/03/06 06:06:57;;;;;;;0.00;0.00;;;;;;;21.92;46.08;101612.97;5056148;28;20394;-64
2021/03/06 06:09:23;;;;;;;0.00;0.00;;;;;;;21.91;46.78;101605.81;5074362;28;20020;-63
2021/03/06 06:11:48;;;;;;;0.10;0.10;;;;;;;21.90;46.87;101598.63;5073864;28;20032;-64
2021/03/06 06:14:13;;;;;;;0.38;0.00;;;;;;;21.92;46.83;101591.09;5074202;28;20028;-63
2021/03/06 06:16:39;;;;;;;0.00;0.00;;;;;;;21.89;47.04;101577.75;5073912;28;20029;-63
2021/03/06 06:19:05;;;;;;;0.10;0.10;;;;;;;21.92;47.12;101560.97;5073609;28;20032;-63
2021/03/06 06:21:41;;;;;;;0.00;0.00;;;;;;;21.92;46.54;101580.13;5073841;28;20024;-63
2021/03/06 06:24:12;;;;;;;0.00;0.00;;;;;;;21.92;46.59;101574.66;5073961;28;20023;-63
2021/03/06 06:26:39;;;;;;;0.00;0.00;;;;;;;21.93;46.96;101568.16;5073676;28;20108;-63
2021/03/06 06:29:05;;;;;;;0.17;0.00;;;;;;;21.93;46.81;101570.88;5073379;28;20062;-63
2021/03/06 06:31:31;;;;;;;0.00;0.00;;;;;;;21.91;46.44;101578.44;5055798;28;20067;-63
2021/03/06 06:33:57;;;;;;;0.00;0.00;;;;;;;21.90;46.21;101565.78;5056425;28;20078;-63
2021/03/06 06:36:38;;;;;;;0.00;0.00;;;;;;;21.96;46.28;101563.34;5073143;28;20040;-63
2021/03/06 06:39:05;;;;;;;0.00;0.00;;;;;;;21.95;45.65;101561.63;5073196;28;20029;-63
2021/03/06 06:41:51;;;;;;;0.00;0.00;;;;;;;21.93;45.97;101562.69;5073010;28;20079;-63
2021/03/06 06:44:17;;;;;;;0.00;0.00;;;;;;;21.95;45.25;101562.50;5073305;28;20418;-63
2021/03/06 06:46:42;;;;;;;0.10;0.10;;;;;;;21.96;45.30;101555.97;5073193;28;20064;-63
2021/03/06 06:49:08;;;;;;;0.10;0.00;;;;;;;21.95;45.57;101557.03;5073001;28;20558;-63
2021/03/06 06:51:33;;;;;;;0.00;0.00;;;;;;;21.97;45.13;101565.06;5073280;28;20028;-63
2021/03/06 06:54:09;;;;;;;0.00;0.00;;;;;;;21.95;45.45;101551.53;5072822;28;20028;-63
2021/03/06 06:56:35;;;;;;;0.05;0.00;;;;;;;21.95;44.84;101540.59;5073079;28;20067;-63
2021/03/06 06:59:10;;;;;;;0.10;0.00;;;;;;;21.95;45.38;101540.59;5054816;28;20056;-64
2021/03/06 07:01:37;;;;;;;0.00;0.00;;;;;;;21.93;45.39;101537.19;5073160;28;20020;-63
2021/03/06 07:04:07;;;;;;;0.00;0.00;;;;;;;21.97;45.04;101532.19;5072285;28;20021;-64
2021/03/06 07:06:33;;;;;;;0.20;0.10;;;;;;;21.97;45.07;101535.78;5072930;28;20036;-64
2021/03/06 07:09:10;;;;;;;0.10;0.03;;;;;;;21.99;44.94;101535.59;5072656;28;20020;-64
2021/03/06 07:11:36;;;;;;;0.10;0.00;;;;;;;21.98;45.03;101533.91;5054571;28;20044;-64
2021/03/06 07:14:01;;;;;;;0.00;0.00;;;;;;;21.98;44.97;101536.63;5072527;28;20505;-64
2021/03/06 07:16:59;;;;;;;0.00;0.00;;;;;;;21.99;44.88;101535.59;5054623;28;20032;-63
2021/03/06 07:19:32;;;;;;;0.00;0.00;;;;;;;21.97;45.09;101532.19;5072832;28;20028;-63
2021/03/06 07:22:00;;;;;;;0.10;0.00;;;;;;;21.98;44.86;101529.28;5072480;28;20028;-64
2021/03/06 07:24:27;;;;;;;0.05;0.05;;;;;;;21.96;45.02;101519.53;5054729;28;20376;-64
2021/03/06 07:26:52;;;;;;;0.03;0.00;;;;;;;21.98;44.69;101512.00;5072429;28;20108;-63
2021/03/06 07:29:22;;;;;;;0.20;0.00;;;;;;;21.97;44.73;101510.28;5054710;28;20561;-64
2021/03/06 07:31:53;;;;;;;0.20;0.00;;;;;;;21.99;44.87;101509.09;5072061;28;20363;-63
2021/03/06 07:34:20;;;;;;;0.10;0.00;;;;;;;22.00;44.57;101507.19;5072122;28;20124;-64
2021/03/06 07:36:46;;;;;;;0.00;0.00;;;;;;;21.98;44.82;101509.25;5071204;28;20056;-64
2021/03/06 07:39:14;;;;;;;0.20;0.03;;;;;;;21.96;44.59;101503.13;5072663;28;20036;-64
2021/03/06 07:41:47;;;;;;;0.10;0.00;;;;;;;21.98;44.30;101501.91;5072262;28;20020;-64
2021/03/06 07:44:18;;;;;;;0.00;0.00;;;;;;;21.98;44.62;101485.47;5072410;28;20016;-63
2021/03/06 07:46:44;;;;;;;0.10;0.10;;;;;;;22.00;44.75;101482.56;5072340;28;20024;-63
2021/03/06 07:49:12;;;;;;;0.00;0.00;;;;;;;22.01;44.39;101479.66;5072241;28;20482;-64
2021/03/06 07:51:42;;;;;;;0.13;0.10;;;;;;;21.99;43.97;101475.38;5072477;28;20368;-64
2021/03/06 07:54:10;;;;;;;0.00;0.00;;;;;;;22.01;43.99;101473.34;5072174;28;20028;-64
2021/03/06 07:56:37;;;;;;;0.08;0.00;;;;;;;21.98;44.20;101468.19;5072322;28;20459;-63
2021/03/06 07:59:02;;;;;;;0.10;0.00;;;;;;;21.98;44.20;101465.47;5054026;28;20375;-63
2021/03/06 08:01:32;;;;;;;0.05;0.00;;;;;;;22.00;43.94;101471.59;5071930;28;20033;-63
2021/03/06 08:04:02;;;;;;;0.20;0.00;;;;;;;21.97;44.13;101477.44;5072085;28;20021;-63
2021/03/06 08:06:29;;;;;;;0.00;0.00;;;;;;;21.98;44.26;101473.66;5072299;28;20055;-64
2021/03/06 08:09:05;;;;;;;0.17;0.10;;;;;;;22.00;44.73;101449.69;5054112;28;20372;-63
2021/03/06 08:11:33;;;;;;;0.00;0.00;;;;;;;22.01;45.02;101448.69;5072304;28;20029;-63
2021/03/06 08:14:00;;;;;;;0.00;0.00;;;;;;;22.01;45.77;101456.91;5054476;28;20384;-63
2021/03/06 08:16:28;;;;;;;0.00;0.00;;;;;;;22.04;45.53;101451.06;5052071;28;20036;-63
2021/03/06 08:18:55;;;;;;;0.05;0.00;;;;;;;22.02;46.44;101442.19;5051907;28;20112;-64
2021/03/06 08:21:40;;;;;;;0.00;0.00;;;;;;;22.00;46.88;101433.28;5067142;28;20025;-63
2021/03/06 08:24:23;;;;;;;0.00;0.00;;;;;;;22.04;46.54;101429.16;5073872;28;20103;-63
2021/03/06 08:27:08;;;;;;;0.22;0.10;;;;;;;22.00;46.60;101423.16;5075855;28;20032;-63
2021/03/06 08:29:38;;;;;;;0.00;0.00;;;;;;;22.01;46.92;101424.06;5075882;28;20063;-63
2021/03/06 08:32:16;;;;;;;0.00;0.00;;;;;;;22.03;47.04;101416.50;5075785;28;20033;-63
2021/03/06 08:34:45;;;;;;;0.10;0.00;;;;;;;21.99;47.18;101415.13;5075779;28;20492;-63
2021/03/06 08:37:16;;;;;;;0.00;0.00;;;;;;;22.03;46.84;101411.03;5076238;28;20368;-64
2021/03/06 08:39:56;;;;;;;0.00;0.00;;;;;;;22.05;46.94;101403.50;5075678;28;20103;-63
2021/03/06 08:42:24;;;;;;;0.13;0.00;;;;;;;22.03;47.02;101394.59;5075037;28;20037;-64
2021/03/06 08:44:50;;;;;;;0.17;0.00;;;;;;;22.03;46.86;101389.97;5075096;28;20490;-64
2021/03/06 08:47:22;;;;;;;0.00;0.00;;;;;;;22.03;46.99;101397.34;5075065;28;20387;-64
2021/03/06 08:49:48;;;;;;;0.10;0.00;;;;;;;22.02;46.99;101387.44;5075413;28;20024;-64
2021/03/06 08:52:13;;;;;;;0.00;0.00;;;;;;;22.00;46.46;101378.50;5075405;28;20032;-63
2021/03/06 08:54:40;;;;;;;0.10;0.08;;;;;;;22.00;46.06;101367.56;5075440;28;20024;-63
2021/03/06 08:57:21;;;;;;;0.00;0.00;;;;;;;22.05;46.09;101359.72;5075173;28;20127;-63
2021/03/06 08:59:47;;;;;;;0.00;0.00;;;;;;;22.03;45.74;101356.28;5056931;28;20062;-64
2021/03/06 09:02:20;;;;;;;0.10;0.00;;;;;;;22.04;45.61;101347.03;5075295;28;20028;-63
2021/03/06 09:04:47;;;;;;;0.00;0.00;;;;;;;22.07;45.56;101352.16;5075156;28;20096;-64
2021/03/06 09:07:25;;;;;;;0.20;0.10;;;;;;;22.05;45.74;101354.22;5075122;28;20025;-63
2021/03/06 09:09:50;;;;;;;0.10;0.00;;;;;;;22.04;45.17;101344.28;5074962;28;20027;-63
2021/03/06 09:12:16;;;;;;;0.00;0.00;;;;;;;22.02;45.19;101344.47;5074526;28;20029;-63
2021/03/06 09:14:41;;;;;;;0.00;0.00;;;;;;;22.04;45.72;101336.91;5075155;28;20016;-63
2021/03/06 09:17:10;;;;;;;0.00;0.00;;;;;;;22.06;45.39;101343.09;5074820;28;20051;-63
2021/03/06 09:19:36;;;;;;;0.03;0.03;;;;;;;22.04;45.29;101330.59;5075125;28;20027;-63
2021/03/06 09:22:07;;;;;;;0.10;0.00;;;;;;;22.04;45.37;101325.97;5056801;28;20020;-63
2021/03/06 09:24:50;;;;;;;0.00;0.00;;;;;;;22.04;44.98;101320.50;5074929;28;20023;-64
2021/03/06 09:27:16;;;;;;;0.35;0.00;;;;;;;22.04;44.75;101309.53;5074768;28;20380;-63
2021/03/06 09:29:43;;;;;;;0.00;0.00;;;;;;;22.06;44.58;101325.81;5074851;28;20052;-63
2021/03/06 09:32:09;;;;;;;0.00;0.00;;;;;;;22.02;44.25;101306.13;5074623;28;20056;-63
2021/03/06 09:34:35;;;;;;;0.00;0.00;;;;;;;22.03;43.90;101307.00;5074413;28;20540;-63
2021/03/06 09:37:16;;;;;;;0.10;0.00;;;;;;;22.04;44.21;101293.13;5074462;28;20025;-63
2021/03/06 09:39:42;;;;;;;0.05;0.00;;;;;;;22.04;44.63;101286.78;5074514;28;20550;-64
2021/03/06 09:42:07;;;;;;;0.00;0.00;;;;;;;22.05;44.25;101272.09;5070844;28;20069;-63
2021/03/06 09:44:33;;;;;;;0.65;0.10;;;;;;;22.05;44.20;101272.09;5074536;28;20062;-63
2021/03/06 09:47:00;;;;;;;0.00;0.00;;;;;;;22.04;44.46;101264.88;5074295;28;20020;-63
2021/03/06 09:49:33;;;;;;;0.00;0.00;;;;;;;22.05;44.21;101255.66;5074525;28;20036;-64
2021/03/06 09:51:58;;;;;;;0.25;0.05;;;;;;;22.03;44.52;101241.28;5073902;28;20055;-64
2021/03/06 09:54:26;;;;;;;0.40;0.20;;;;;;;22.06;44.28;101240.94;5074291;28;20107;-63
2021/03/06 09:56:52;;;;;;;0.25;0.00;;;;;;;22.04;44.51;101238.34;5074132;28;20028;-63
2021/03/06 09:59:19;;;;;;;0.52;0.10;;;;;;;22.05;44.43;101236.50;5074204;28;20032;-63
2021/03/06 10:01:45;;;;;;;0.15;0.03;;;;;;;22.04;44.57;101238.34;5056148;28;20315;-64
2021/03/06 10:04:15;;;;;;;0.00;0.00;;;;;;;22.07;44.74;101228.94;5074037;28;20040;-63
2021/03/06 10:06:43;;;;;;;0.00;0.00;;;;;;;22.09;44.57;101224.13;5074126;28;20024;-63
2021/03/06 10:09:11;;;;;;;0.10;0.10;;;;;;;22.04;44.09;101221.94;5074104;28;20031;-63
2021/03/06 10:11:37;;;;;;;0.10;0.00;;;;;;;22.02;44.29;101223.16;5055415;28;20115;-64
2021/03/06 10:14:03;;;;;;;0.00;0.00;;;;;;;22.03;44.78;101231.19;5055354;28;20029;-63
2021/03/06 10:16:41;;;;;;;0.10;0.00;;;;;;;22.07;44.32;101221.59;5073811;28;20436;-64
2021/03/06 10:19:07;;;;;;;0.00;0.00;;;;;;;22.06;44.53;101214.41;5073607;28;20464;-63
2021/03/06 10:21:32;;;;;;;0.20;0.20;;;;;;;22.04;44.53;101200.03;5074101;28;20024;-63
2021/03/06 10:24:03;;;;;;;0.00;0.00;;;;;;;22.09;44.29;101196.75;5055691;28;20352;-64
2021/03/06 10:26:29;;;;;;;0.05;0.00;;;;;;;22.05;44.57;101206.38;5073602;28;20017;-63
2021/03/06 10:29:18;;;;;;;0.10;0.00;;;;;;;22.07;44.45;101207.03;5073500;28;20506;-64
2021/03/06 10:31:44;;;;;;;0.00;0.00;;;;;;;22.06;44.21;101197.13;5073546;28;20033;-63
2021/03/06 10:34:17;;;;;;;0.00;0.00;;;;;;;22.05;44.01;101207.22;5073378;28;20035;-64
2021/03/06 10:36:43;;;;;;;0.00;0.00;;;;;;;22.05;43.86;101207.22;5073502;28;20361;-63
2021/03/06 10:39:19;;;;;;;0.00;0.00;;;;;;;22.05;44.05;101206.38;5073278;28;20131;-63
2021/03/06 10:41:54;;;;;;;0.00;0.00;;;;;;;22.08;44.79;101197.78;5072628;28;20023;-64
2021/03/06 10:44:20;;;;;;;0.00;0.00;;;;;;;22.08;45.14;101189.56;5073353;28;20029;-63
2021/03/06 10:47:00;;;;;;;0.00;0.00;;;;;;;22.10;45.59;101187.50;5072525;28;20035;-63
2021/03/06 10:49:40;;;;;;;0.15;0.10;;;;;;;22.08;45.82;101189.56;5073348;28;20028;-64
2021/03/06 10:52:11;;;;;;;0.00;0.00;;;;;;;22.08;46.54;101184.09;5072950;28;20040;-64
2021/03/06 10:54:50;;;;;;;0.00;0.00;;;;;;;22.10;46.69;101182.88;5073123;28;20440;-63
2021/03/06 10:57:16;;;;;;;0.00;0.00;;;;;;;22.09;46.50;101174.84;5073092;28;20472;-63
2021/03/06 10:59:41;;;;;;;0.00;0.00;;;;;;;22.09;47.07;101169.38;5073377;28;20031;-63
2021/03/06 11:02:07;;;;;;;0.03;0.00;;;;;;;22.07;47.22;101166.81;5072925;28;20471;-64
2021/03/06 11:04:36;;;;;;;0.00;0.00;;;;;;;22.10;47.00;101160.13;5072957;28;20020;-64
2021/03/06 11:07:07;;;;;;;0.00;0.00;;;;;;;22.10;47.16;101177.41;5072737;28;20032;-63
2021/03/06 11:09:36;;;;;;;0.05;0.00;;;;;;;22.10;46.91;101149.16;5072924;28;20039;-64
2021/03/06 11:12:14;;;;;;;0.00;0.00;;;;;;;22.08;47.15;101145.78;5068793;28;20023;-64
2021/03/06 11:14:40;;;;;;;0.00;0.00;;;;;;;22.09;46.84;101133.78;5052705;28;20031;-63
2021/03/06 11:17:05;;;;;;;0.00;0.00;;;;;;;22.08;46.66;101129.34;5052480;28;20032;-64
2021/03/06 11:19:30;;;;;;;0.00;0.00;;;;;;;22.10;46.30;101125.38;5052748;28;20464;-64
2021/03/06 11:21:55;;;;;;;0.00;0.00;;;;;;;22.08;46.77;101115.66;5052445;28;20024;-64
2021/03/06 11:24:21;;;;;;;0.10;0.00;;;;;;;22.10;46.26;101121.78;5056762;28;20021;-64
2021/03/06 11:26:46;;;;;;;0.38;0.00;;;;;;;22.07;46.00;101112.06;5072498;28;20456;-63
2021/03/06 11:29:11;;;;;;;0.38;0.10;;;;;;;22.07;45.86;101113.94;5072444;28;20066;-63